createdAt,value
2018-11-22T00:01:32.270Z,76.33
2018-11-22T00:04:05.729Z,83.30
2018-11-22T00:06:39.228Z,92.50
2018-11-22T00:09:14.346Z,88.47
2018-11-22T00:11:48.325Z,94.43
2018-11-22T00:14:21.685Z,77.57
2018-11-22T00:16:55.006Z,82.27
2018-11-22T00:19:28.689Z,89.73
2018-11-22T00:22:01.951Z,82.27
2018-11-22T00:24:35.729Z,66.73
2018-11-22T00:27:07.986Z,89.17
2018-11-22T00:29:41.568Z,97.17
2018-11-22T00:32:15.095Z,72.37
2018-11-22T00:34:48.407Z,85.17
2018-11-22T00:37:21.619Z,83.03
2018-11-22T00:39:55.484Z,75.83
2018-11-22T00:42:29.004Z,94.07
2018-11-22T00:45:02.937Z,68.27
2018-11-22T00:47:35.111Z,90.00
2018-11-22T00:50:10.431Z,81.33
2018-11-22T00:52:44.186Z,104.50
2018-11-22T00:55:22.531Z,76.47
2018-11-22T00:57:56.284Z,86.17
2018-11-22T01:00:30.448Z,114.70
2018-11-22T01:03:02.589Z,71.77
2018-11-22T01:05:36.628Z,57.83
2018-11-22T01:08:10.688Z,92.67
2018-11-22T01:10:40.368Z,75.93
2018-11-22T01:13:17.428Z,77.73
2018-11-22T01:15:51.268Z,82.17
2018-11-22T01:18:23.340Z,75.67
2018-11-22T01:20:56.886Z,77.27
2018-11-22T01:23:32.366Z,57.23
2018-11-22T01:26:06.128Z,68.93
2018-11-22T01:28:40.148Z,76.33
2018-11-22T01:31:14.198Z,90.13
2018-11-22T01:33:47.778Z,84.53
2018-11-22T01:36:21.679Z,90.23
2018-11-22T01:38:55.181Z,61.13
2018-11-22T01:41:29.954Z,79.00
2018-11-22T01:44:03.416Z,83.87
2018-11-22T01:46:37.146Z,76.50
2018-11-22T01:49:13.274Z,93.67
2018-11-22T01:51:46.628Z,74.63
2018-11-22T01:54:20.465Z,62.83
2018-11-22T01:56:52.627Z,67.07
2018-11-22T01:59:26.809Z,70.83
2018-11-22T02:02:00.391Z,58.60
2018-11-22T02:04:36.699Z,88.60
2018-11-22T02:07:09.138Z,65.87
2018-11-22T02:09:42.881Z,69.93
2018-11-22T02:12:16.045Z,68.13
2018-11-22T02:14:48.174Z,70.73
2018-11-22T02:17:21.760Z,62.67
2018-11-22T02:19:58.009Z,78.83
2018-11-22T02:22:31.624Z,68.83
2018-11-22T02:25:05.350Z,74.50
2018-11-22T02:27:38.600Z,89.50
2018-11-22T02:30:17.444Z,73.70
2018-11-22T02:32:52.564Z,78.00
2018-11-22T02:35:26.198Z,78.00
2018-11-22T02:40:42.375Z,76.57
2018-11-22T02:43:12.283Z,88.23
2018-11-22T02:45:46.179Z,54.30
2018-11-22T02:48:19.387Z,65.10
2018-11-22T02:50:49.455Z,63.63
2018-11-22T02:53:23.115Z,65.43
2018-11-22T02:55:54.268Z,62.63
2018-11-22T02:58:28.275Z,67.70
2018-11-22T03:00:58.159Z,70.10
2018-11-22T03:03:31.665Z,79.07
2018-11-22T03:06:03.140Z,78.30
2018-11-22T03:08:38.293Z,81.03
2018-11-22T03:11:09.625Z,64.00
2018-11-22T03:13:43.299Z,68.33
2018-11-22T03:16:14.358Z,71.20
2018-11-22T03:18:48.643Z,74.80
2018-11-22T03:21:18.712Z,67.67
2018-11-22T03:23:52.505Z,76.33
2018-11-22T03:26:23.469Z,62.77
2018-11-22T03:28:58.229Z,98.40
2018-11-22T03:31:29.778Z,70.80
2018-11-22T03:34:01.835Z,73.70
2018-11-22T03:36:33.106Z,87.13
2018-11-22T03:39:06.964Z,57.60
2018-11-22T03:41:38.475Z,65.13
2018-11-22T03:44:12.397Z,74.77
2018-11-22T03:46:43.460Z,67.87
2018-11-22T03:49:16.728Z,61.30
2018-11-22T03:51:47.702Z,78.33
2018-11-22T03:54:21.874Z,79.97
2018-11-22T03:56:53.198Z,78.13
2018-11-22T03:59:25.477Z,77.23
2018-11-22T04:01:57.040Z,66.80
2018-11-22T04:04:30.883Z,94.03
2018-11-22T04:07:01.892Z,66.57
2018-11-22T04:09:35.951Z,65.87
2018-11-22T04:12:07.201Z,63.23
2018-11-22T04:14:41.137Z,66.90
2018-11-22T04:17:11.276Z,83.27
2018-11-22T04:19:47.746Z,78.30
2018-11-22T04:22:17.436Z,78.20
2018-11-22T04:24:50.690Z,70.37
2018-11-22T04:27:20.462Z,62.90
2018-11-22T04:29:54.379Z,58.77
2018-11-22T04:32:25.941Z,64.30
2018-11-22T04:34:59.680Z,71.37
2018-11-22T04:37:31.064Z,68.93
2018-11-22T04:40:04.538Z,66.90
2018-11-22T04:42:36.008Z,81.23
2018-11-22T04:45:10.388Z,80.63
2018-11-22T04:47:42.077Z,68.83
2018-11-22T04:50:17.207Z,72.37
2018-11-22T04:52:49.365Z,85.90
2018-11-22T04:55:23.030Z,71.43
2018-11-22T04:57:57.925Z,69.10
2018-11-22T05:00:28.709Z,72.57
2018-11-22T05:02:59.778Z,79.40
2018-11-22T05:05:32.311Z,56.47
2018-11-22T05:08:01.977Z,59.00
2018-11-22T05:10:35.321Z,69.07
2018-11-22T05:13:04.955Z,79.33
2018-11-22T05:15:38.312Z,66.50
2018-11-22T05:18:08.185Z,89.63
2018-11-22T05:20:42.078Z,59.80
2018-11-22T05:23:13.591Z,66.53
2018-11-22T05:25:50.957Z,89.10
2018-11-22T05:28:22.130Z,66.43
2018-11-22T05:30:58.925Z,69.23
2018-11-22T05:33:30.440Z,81.70
2018-11-22T05:36:02.497Z,86.93
2018-11-22T05:38:33.643Z,71.43
2018-11-22T05:41:07.805Z,73.90
2018-11-22T05:43:39.215Z,79.70
2018-11-22T05:46:11.658Z,80.20
2018-11-22T05:48:43.856Z,75.93
2018-11-22T05:51:17.381Z,81.57
2018-11-22T05:56:17.599Z,70.27
2018-11-22T05:58:51.523Z,53.77
2018-11-22T06:01:22.928Z,71.90
2018-11-22T06:03:56.256Z,69.17
2018-11-22T06:06:27.541Z,77.93
2018-11-22T06:09:01.642Z,66.93
2018-11-22T06:11:33.135Z,67.20
2018-11-22T06:14:05.192Z,57.57
2018-11-22T06:16:36.605Z,78.43
2018-11-22T06:19:10.339Z,73.53
2018-11-22T06:21:41.672Z,92.23
2018-11-22T06:24:18.442Z,67.37
2018-11-22T06:26:49.539Z,72.77
2018-11-22T06:29:23.250Z,63.77
2018-11-22T06:31:55.020Z,65.67
2018-11-22T06:34:28.955Z,67.30
2018-11-22T06:37:00.152Z,62.60
2018-11-22T06:39:34.103Z,69.27
2018-11-22T06:42:05.352Z,64.70
2018-11-22T06:44:39.493Z,65.63
2018-11-22T06:47:11.124Z,47.60
2018-11-22T06:49:45.085Z,73.53
2018-11-22T06:52:16.383Z,86.30
2018-11-22T06:54:49.976Z,58.90
2018-11-22T06:57:21.509Z,67.23
2018-11-22T06:59:55.265Z,60.43
2018-11-22T07:02:26.515Z,74.93
2018-11-22T07:05:00.253Z,48.33
2018-11-22T07:07:31.201Z,68.90
2018-11-22T07:10:03.273Z,78.00
2018-11-22T07:12:34.868Z,64.30
2018-11-22T07:17:52.228Z,59.63
2018-11-22T07:20:24.269Z,74.17
2018-11-22T07:22:57.201Z,67.13
2018-11-22T07:25:33.038Z,56.23
2018-11-22T07:30:42.553Z,69.40
2018-11-22T07:33:14.217Z,59.00
2018-11-22T07:38:25.332Z,73.13
2018-11-22T07:40:57.640Z,66.90
2018-11-22T07:43:28.985Z,50.53
2018-11-22T07:46:05.979Z,69.13
2018-11-22T07:48:37.486Z,53.47
2018-11-22T07:51:11.417Z,62.60
2018-11-22T07:53:42.459Z,70.23
2018-11-22T07:56:16.375Z,58.73
2018-11-22T07:58:47.383Z,79.27
2018-11-22T08:01:17.667Z,77.17
2018-11-22T08:04:06.574Z,77.13
2018-11-22T08:06:36.758Z,62.80
2018-11-22T08:09:08.824Z,60.37
2018-11-22T08:11:39.394Z,64.47
2018-11-22T08:14:09.839Z,85.70
2018-11-22T08:16:40.072Z,74.13
2018-11-22T08:21:45.401Z,67.90
2018-11-22T08:24:16.460Z,58.63
2018-11-22T08:26:51.167Z,61.40
2018-11-22T08:29:23.763Z,67.07
2018-11-22T08:32:01.803Z,66.03
2018-11-22T08:37:09.436Z,61.37
2018-11-22T08:37:18.556Z,66.43
2018-11-22T08:39:49.496Z,66.93
2018-11-22T08:47:36.869Z,63.70
2018-11-22T08:50:08.318Z,60.23
2018-11-22T08:52:43.455Z,57.83
2018-11-22T08:55:15.252Z,53.73
2018-11-22T08:57:47.880Z,68.23
2018-11-22T09:00:20.461Z,67.40
2018-11-22T09:05:30.389Z,60.30
2018-11-22T09:08:04.684Z,51.50
2018-11-22T09:10:36.147Z,53.37
2018-11-22T09:13:11.162Z,59.80
2018-11-22T09:15:40.913Z,55.90
2018-11-22T09:21:05.948Z,49.50
2018-11-22T09:23:38.486Z,63.23
2018-11-22T09:26:11.858Z,56.67
2018-11-22T09:28:56.388Z,66.27
2018-11-22T09:31:21.948Z,41.60
2018-11-22T09:36:30.799Z,61.23
2018-11-22T09:39:20.873Z,49.77
2018-11-22T09:44:22.726Z,43.97
2018-11-22T09:46:57.023Z,54.43
2018-11-22T09:49:38.872Z,47.60
2018-11-22T09:52:10.893Z,56.73
2018-11-22T09:54:44.613Z,44.30
2018-11-22T10:08:01.647Z,50.90
2018-11-22T10:13:56.156Z,42.57
2018-11-22T12:18:17.572Z,28.27
2018-11-22T12:21:08.404Z,44.37
2018-11-22T12:23:37.974Z,23.47
2018-11-22T12:26:07.158Z,33.67
2018-11-22T12:28:36.066Z,28.80
2018-11-22T12:31:06.722Z,30.20
2018-11-22T12:33:41.177Z,24.63
2018-11-22T12:36:15.160Z,34.77
2018-11-22T12:38:44.787Z,28.33
2018-11-22T12:41:14.860Z,31.63
2018-11-22T12:43:44.219Z,30.67
2018-11-22T12:46:13.199Z,27.83
2018-11-22T12:48:42.520Z,24.67
2018-11-22T12:51:13.503Z,39.30
2018-11-22T12:53:42.388Z,25.27
2018-11-22T12:56:11.803Z,28.13
2018-11-22T12:58:40.984Z,28.80
2018-11-22T13:01:09.890Z,30.13
2018-11-22T13:03:38.999Z,35.80
2018-11-22T13:06:07.968Z,29.33
2018-11-22T13:08:37.121Z,26.73
2018-11-22T13:11:06.544Z,29.93
2018-11-22T13:13:35.503Z,22.70
2018-11-22T13:16:04.568Z,26.20
2018-11-22T13:18:33.435Z,29.40
2018-11-22T13:21:02.376Z,33.33
2018-11-22T13:23:31.404Z,28.40
2018-11-22T13:26:00.276Z,30.80
2018-11-22T13:28:29.279Z,24.97
2018-11-22T13:30:58.316Z,32.80
2018-11-22T13:33:28.656Z,26.00
2018-11-22T13:35:58.151Z,28.60
2018-11-22T13:38:27.158Z,29.30
2018-11-22T13:40:56.217Z,28.37
2018-11-22T13:43:25.237Z,26.00
2018-11-22T13:45:54.146Z,31.77
2018-11-22T13:48:23.126Z,21.93
2018-11-22T13:50:52.096Z,29.27
2018-11-22T13:53:22.404Z,25.97
2018-11-22T13:55:51.315Z,34.03
2018-11-22T13:58:20.281Z,41.47
2018-11-22T14:00:49.184Z,32.63
2018-11-22T14:03:20.371Z,26.70
2018-11-22T14:05:49.294Z,29.10
2018-11-22T14:08:18.248Z,29.37
2018-11-22T14:10:47.207Z,29.30
2018-11-22T14:13:29.279Z,22.43
2018-11-22T14:15:58.222Z,33.03
2018-11-22T14:18:27.274Z,29.90
2018-11-22T14:20:56.260Z,35.97
2018-11-22T14:23:25.448Z,29.43
2018-11-22T14:25:54.815Z,34.70
2018-11-22T14:28:24.172Z,31.97
2018-11-22T14:30:53.155Z,30.03
2018-11-22T14:33:29.558Z,32.37
2018-11-22T14:36:01.536Z,53.20
2018-11-22T14:38:30.860Z,43.47
2018-11-22T14:40:59.835Z,32.73
2018-11-22T14:43:36.340Z,25.47
2018-11-22T14:46:05.444Z,47.77
2018-11-22T14:48:34.711Z,28.60
2018-11-22T14:51:15.812Z,34.80
2018-11-22T14:54:05.691Z,26.43
2018-11-22T14:56:35.040Z,29.50
2018-11-22T14:59:04.014Z,26.10
2018-11-22T15:01:33.451Z,26.30
2018-11-22T15:04:13.268Z,25.43
2018-11-22T15:06:42.216Z,34.13
2018-11-22T15:09:11.443Z,32.37
2018-11-22T15:11:40.318Z,47.33
2018-11-22T15:14:12.500Z,22.30
2018-11-22T15:16:41.350Z,37.60
2018-11-22T15:19:10.327Z,34.90
2018-11-22T15:21:39.200Z,41.67
2018-11-22T15:24:08.132Z,30.97
2018-11-22T15:26:37.006Z,48.77
2018-11-22T15:29:06.039Z,29.30
2018-11-22T15:31:35.034Z,25.53
2018-11-22T15:34:05.089Z,34.27
2018-11-22T15:36:33.952Z,45.40
2018-11-22T15:39:03.076Z,33.50
2018-11-22T15:41:32.040Z,29.67
2018-11-22T15:44:00.996Z,55.87
2018-11-22T15:46:29.955Z,28.37
2018-11-22T15:48:58.836Z,26.40
2018-11-22T15:51:27.772Z,37.30
2018-11-22T15:53:58.671Z,36.13
2018-11-22T15:56:27.687Z,26.83
2018-11-22T15:58:56.606Z,32.30
2018-11-22T16:01:26.600Z,24.93
2018-11-22T16:04:03.767Z,33.83
2018-11-22T16:06:32.911Z,37.70
2018-11-22T16:09:01.866Z,34.23
2018-11-22T16:11:30.848Z,32.10
2018-11-22T16:14:04.760Z,29.33
2018-11-22T16:16:33.763Z,34.47
2018-11-22T16:19:02.699Z,40.20
2018-11-22T16:21:31.943Z,35.93
2018-11-22T16:24:01.071Z,23.47
2018-11-22T16:26:30.605Z,38.43
2018-11-22T16:28:59.579Z,26.80
2018-11-22T16:31:29.335Z,33.73
2018-11-22T16:34:11.234Z,36.27
2018-11-22T16:36:40.243Z,24.70
2018-11-22T16:39:10.400Z,27.00
2018-11-22T16:41:39.444Z,28.73
2018-11-22T16:44:08.586Z,29.07
2018-11-22T16:46:37.591Z,27.43
2018-11-22T16:49:07.514Z,27.93
2018-11-22T16:51:36.581Z,24.57
2018-11-22T16:54:08.864Z,37.83
2018-11-22T16:56:37.840Z,35.43
2018-11-22T16:59:06.904Z,31.23
2018-11-22T17:01:35.931Z,23.20
2018-11-22T17:04:05.015Z,38.80
2018-11-22T17:06:34.040Z,44.97
2018-11-22T17:09:03.128Z,30.83
2018-11-22T17:11:33.387Z,27.60
2018-11-22T17:14:01.226Z,29.43
2018-11-22T17:16:30.626Z,37.53
2018-11-22T17:18:59.672Z,28.90
2018-11-22T17:21:28.699Z,29.17
2018-11-22T17:23:57.892Z,33.03
2018-11-22T17:26:26.842Z,32.20
2018-11-22T17:28:55.845Z,32.90
2018-11-22T17:31:24.740Z,25.40
2018-11-22T17:33:54.533Z,49.20
2018-11-22T17:36:23.963Z,42.20
2018-11-22T17:38:52.984Z,41.70
2018-11-22T17:41:22.056Z,25.63
2018-11-22T17:43:51.109Z,37.90
2018-11-22T17:46:20.231Z,37.13
2018-11-22T17:48:49.194Z,33.83
2018-11-22T17:51:18.137Z,39.27
2018-11-22T17:53:47.171Z,24.20
2018-11-22T17:56:16.270Z,34.27
2018-11-22T17:58:45.238Z,22.70
2018-11-22T18:01:14.730Z,31.27
2018-11-22T18:03:43.394Z,39.23
2018-11-22T18:06:12.439Z,26.87
2018-11-22T18:08:41.591Z,28.20
2018-11-22T18:11:10.611Z,22.77
2018-11-22T18:13:39.670Z,28.10
2018-11-22T18:16:08.738Z,24.20
2018-11-22T18:18:37.801Z,32.33
2018-11-22T18:21:07.519Z,23.77
2018-11-22T18:23:36.796Z,34.30
2018-11-22T18:26:06.161Z,26.37
2018-11-22T18:28:35.567Z,27.63
2018-11-22T18:31:04.627Z,24.57
2018-11-22T18:33:33.671Z,22.97
2018-11-22T18:36:02.731Z,28.80
2018-11-22T18:38:31.868Z,31.50
2018-11-22T18:41:01.776Z,22.33
2018-11-22T18:43:30.390Z,23.00
2018-11-22T18:45:59.594Z,30.77
2018-11-22T18:48:28.958Z,29.70
2018-11-22T18:50:58.332Z,33.00
2018-11-22T18:53:27.388Z,59.87
2018-11-22T18:55:56.458Z,26.07
2018-11-22T18:58:25.521Z,29.40
2018-11-22T19:00:54.487Z,36.30
2018-11-22T19:03:23.475Z,27.57
2018-11-22T19:05:52.484Z,45.73
2018-11-22T19:08:21.570Z,43.47
2018-11-22T19:10:50.689Z,36.20
2018-11-22T19:13:19.816Z,40.37
2018-11-22T19:15:49.681Z,42.97
2018-11-22T19:18:19.350Z,32.27
2018-11-22T19:20:48.409Z,30.10
2018-11-22T19:23:17.901Z,34.13
2018-11-22T19:25:46.993Z,29.00
2018-11-22T19:28:16.614Z,31.20
2018-11-22T19:30:46.914Z,33.57
2018-11-22T19:33:17.412Z,33.23
2018-11-22T19:35:48.365Z,40.87
2018-11-22T19:38:17.331Z,36.67
2018-11-22T19:40:46.384Z,49.07
2018-11-22T19:43:15.528Z,54.57
2018-11-22T19:45:46.771Z,43.20
2018-11-22T19:48:15.928Z,39.90
2018-11-22T19:50:45.308Z,38.20
2018-11-22T19:53:15.421Z,45.97
2018-11-22T19:55:44.913Z,38.50
2018-11-22T19:58:15.213Z,29.10
2018-11-22T20:00:44.472Z,40.03
2018-11-22T20:03:13.649Z,29.80
2018-11-22T20:05:43.275Z,33.57
2018-11-22T20:08:14.231Z,27.13
2018-11-22T20:10:44.574Z,36.23
2018-11-22T20:13:13.736Z,34.17
2018-11-22T20:15:42.934Z,38.83
2018-11-22T20:18:12.734Z,35.90
2018-11-22T20:20:43.060Z,47.47
2018-11-22T20:23:11.131Z,27.10
2018-11-22T20:25:40.460Z,35.83
2018-11-22T20:28:09.627Z,32.40
2018-11-22T20:30:40.479Z,33.10
2018-11-22T20:33:09.535Z,29.77
2018-11-22T20:35:38.556Z,33.20
2018-11-22T20:38:07.717Z,28.93
2018-11-22T20:40:36.818Z,36.43
2018-11-22T20:43:07.081Z,34.57
2018-11-22T20:45:40.744Z,32.87
2018-11-22T20:48:06.514Z,34.60
2018-11-22T20:50:36.051Z,32.73
2018-11-22T20:53:05.171Z,38.53
2018-11-22T20:55:35.774Z,41.97
2018-11-22T20:58:05.979Z,32.90
2018-11-22T21:00:36.922Z,49.23
2018-11-22T21:03:06.315Z,34.50
2018-11-22T21:05:35.350Z,36.33
2018-11-22T21:08:04.339Z,31.13
2018-11-22T21:10:34.000Z,31.70
2018-11-22T21:13:03.080Z,43.47
2018-11-22T21:15:33.039Z,28.43
2018-11-22T21:18:06.576Z,34.60
2018-11-22T21:20:37.939Z,36.20
2018-11-22T21:23:07.027Z,39.90
2018-11-22T21:25:35.988Z,38.60
2018-11-22T21:28:05.285Z,34.20
2018-11-22T21:30:35.749Z,34.80
2018-11-22T21:33:04.854Z,27.63
2018-11-22T21:35:34.387Z,27.90
2018-11-22T21:38:04.627Z,26.53
2018-11-22T21:40:34.266Z,25.10
2018-11-22T21:43:03.295Z,19.80
2018-11-22T21:45:33.346Z,21.73
2018-11-22T21:48:02.338Z,28.57
2018-11-22T21:50:31.419Z,26.87
2018-11-22T21:53:00.558Z,27.17
2018-11-22T21:55:30.152Z,45.70
2018-11-22T21:58:00.363Z,27.50
2018-11-22T22:00:40.602Z,22.00
2018-11-22T22:03:11.212Z,23.03
2018-11-22T22:05:43.180Z,27.87
2018-11-22T22:08:12.328Z,25.40
2018-11-22T22:10:41.420Z,25.73
2018-11-22T22:13:10.682Z,26.47
2018-11-22T22:15:40.020Z,29.17
2018-11-22T22:18:09.672Z,24.53
2018-11-22T22:20:38.856Z,24.70
2018-11-22T22:23:13.232Z,21.23
2018-11-22T22:25:37.312Z,24.63
2018-11-22T22:28:06.403Z,29.63
2018-11-22T22:30:35.956Z,31.43
2018-11-22T22:33:06.226Z,19.97
2018-11-22T22:35:35.474Z,30.53
2018-11-22T22:38:04.545Z,21.70
2018-11-22T22:40:34.176Z,31.97
2018-11-22T22:43:03.268Z,20.80
2018-11-22T22:45:33.323Z,29.13
2018-11-22T22:48:02.367Z,30.80
2018-11-22T22:50:31.965Z,26.87
2018-11-22T22:53:01.560Z,21.60
2018-11-22T22:55:31.391Z,37.13
2018-11-22T22:58:00.530Z,28.63
2018-11-22T23:00:35.062Z,33.63
2018-11-22T23:03:05.652Z,27.40
2018-11-22T23:05:34.935Z,28.10
2018-11-22T23:08:04.089Z,26.43
2018-11-22T23:10:33.286Z,27.70
2018-11-22T23:13:03.031Z,46.27
2018-11-22T23:15:32.581Z,27.10
2018-11-22T23:18:01.596Z,25.27
2018-11-22T23:20:32.916Z,30.90
2018-11-22T23:23:01.994Z,24.70
2018-11-22T23:25:31.216Z,22.87
2018-11-22T23:28:00.278Z,19.87
2018-11-22T23:30:33.376Z,25.97
2018-11-22T23:33:03.913Z,29.70
2018-11-22T23:35:33.054Z,30.50
2018-11-22T23:38:02.200Z,27.83
2018-11-22T23:40:32.192Z,19.77
2018-11-22T23:43:01.355Z,33.90
2018-11-22T23:45:31.525Z,24.87
2018-11-22T23:48:00.696Z,28.83
2018-11-22T23:50:30.966Z,25.37
2018-11-22T23:53:01.096Z,24.10
2018-11-22T23:55:30.300Z,25.30
2018-11-22T23:57:59.413Z,28.13
